Time;durP1;ratioP1;P1;durP2;ratioP2;P2;SDS_P1;SDS_P2;PMS_P1;PMS_P2;Temp;Humidity;BMP_temperature;BMP_pressure;BME280_temperature;BME280_humidity;BME280_pressure;Samples;Min_cycle;Max_cycle;Signal;HPM_P1;HPM_P2
2023/04/30 00:01:47;;;;;;;8.00;5.05;;;11.70;93.20;;;;;;5065970;28;20190;-92
2023/04/30 00:04:14;;;;;;;7.28;5.53;;;11.60;93.40;;;;;;5062705;28;20209;-92
2023/04/30 00:06:41;;;;;;;8.65;5.38;;;11.70;93.40;;;;;;5065046;28;20202;-94
2023/04/30 00:09:08;;;;;;;5.20;4.70;;;11.60;93.40;;;;;;5067658;28;20204;-90
2023/04/30 00:11:36;;;;;;;5.78;5.00;;;11.60;93.30;;;;;;5065219;28;20197;-93
2023/04/30 00:14:03;;;;;;;5.82;5.20;;;11.60;93.80;;;;;;5066376;28;20194;-94
2023/04/30 00:16:30;;;;;;;6.07;5.22;;;11.60;93.90;;;;;;5061173;28;20202;-92
2023/04/30 00:18:57;;;;;;;5.93;5.32;;;11.50;94.20;;;;;;5051458;28;20226;-92
2023/04/30 00:21:24;;;;;;;6.65;5.20;;;11.40;94.50;;;;;;5062634;28;20217;-93
2023/04/30 00:23:50;;;;;;;5.78;5.10;;;11.40;94.40;;;;;;5070122;28;20213;-92
2023/04/30 00:26:17;;;;;;;8.27;4.80;;;11.40;94.40;;;;;;5060538;28;20205;-94
2023/04/30 00:28:45;;;;;;;5.50;5.00;;;11.40;94.60;;;;;;5062764;28;20183;-90
2023/04/30 00:31:12;;;;;;;6.43;5.18;;;11.40;94.60;;;;;;5068404;28;20201;-90
2023/04/30 00:33:39;;;;;;;6.00;5.20;;;11.40;94.70;;;;;;5047526;28;20213;-93
2023/04/30 00:36:06;;;;;;;5.78;5.20;;;11.40;94.60;;;;;;5051308;28;20203;-92
2023/04/30 00:38:33;;;;;;;6.15;5.22;;;11.40;94.80;;;;;;5059132;28;20276;-92
2023/04/30 00:41:00;;;;;;;5.60;5.03;;;11.50;94.30;;;;;;5063972;28;20183;-90
2023/04/30 00:43:27;;;;;;;5.78;5.15;;;11.50;94.30;;;;;;5064506;28;20206;-90
2023/04/30 00:45:57;;;;;;;5.50;4.90;;;11.50;94.50;;;;;;5054026;28;20201;-92
2023/04/30 00:48:25;;;;;;;5.90;5.25;;;11.50;94.50;;;;;;5058754;28;20189;-90
2023/04/30 00:50:52;;;;;;;5.75;5.15;;;11.50;94.40;;;;;;5067387;28;20201;-90
2023/04/30 00:53:20;;;;;;;6.47;5.28;;;11.50;94.70;;;;;;5063820;28;20316;-90
2023/04/30 00:55:48;;;;;;;5.88;5.10;;;11.50;94.60;;;;;;5066296;28;20178;-90
2023/04/30 00:58:16;;;;;;;7.90;5.47;;;11.50;94.40;;;;;;5072012;28;20210;-90
2023/04/30 01:00:45;;;;;;;7.20;5.78;;;11.50;93.90;;;;;;5067876;28;20204;-91
2023/04/30 01:03:14;;;;;;;5.88;5.22;;;11.50;94.20;;;;;;5065305;28;20190;-90
2023/04/30 01:05:42;;;;;;;6.72;5.45;;;11.40;94.30;;;;;;5060618;28;20254;-91
2023/04/30 01:08:10;;;;;;;5.75;4.93;;;11.40;94.20;;;;;;5063197;28;20206;-91
2023/04/30 01:10:56;;;;;;;6.97;5.65;;;11.40;94.10;;;;;;5069298;28;20201;-89
2023/04/30 01:13:29;;;;;;;8.15;5.30;;;11.40;94.30;;;;;;5047057;28;20205;-90
2023/04/30 01:16:00;;;;;;;6.00;5.40;;;11.40;94.10;;;;;;5064708;28;20187;-92
2023/04/30 01:18:33;;;;;;;6.75;5.68;;;11.30;94.20;;;;;;5049724;28;20562;-93
2023/04/30 01:21:04;;;;;;;6.32;5.57;;;11.40;94.20;;;;;;5058691;28;20216;-91
2023/04/30 01:23:48;;;;;;;6.13;5.50;;;11.30;94.30;;;;;;5065743;28;20257;-94
2023/04/30 01:26:19;;;;;;;6.35;5.28;;;11.30;94.70;;;;;;5035886;28;20197;-90
2023/04/30 01:28:51;;;;;;;6.93;5.38;;;11.30;94.70;;;;;;5054380;28;20198;-90
2023/04/30 01:31:19;;;;;;;6.85;5.40;;;11.20;94.70;;;;;;5056505;28;20202;-91
2023/04/30 01:33:47;;;;;;;8.25;5.38;;;11.20;94.70;;;;;;5065430;28;20229;-89
2023/04/30 01:36:30;;;;;;;6.68;5.43;;;11.20;94.80;;;;;;5082475;28;20297;-90
2023/04/30 01:39:08;;;;;;;6.57;5.68;;;11.10;94.90;;;;;;5242536;22;20227;-91
2023/04/30 01:41:40;;;;;;;6.22;5.57;;;11.10;94.80;;;;;;5045878;28;20202;-90
2023/04/30 01:44:26;;;;;;;8.02;5.97;;;11.00;95.00;;;;;;5047888;28;20222;-93
2023/04/30 01:46:58;;;;;;;6.53;5.80;;;11.00;95.20;;;;;;5046736;28;20186;-92
2023/04/30 01:49:38;;;;;;;6.82;5.85;;;11.00;95.40;;;;;;5043132;28;20190;-94
2023/04/30 01:52:14;;;;;;;6.03;5.32;;;11.00;95.40;;;;;;5052685;28;20198;-92
2023/04/30 01:54:49;;;;;;;7.65;5.95;;;11.10;95.60;;;;;;5054179;28;20202;-90
2023/04/30 01:57:21;;;;;;;7.75;5.38;;;11.10;95.20;;;;;;5048384;28;20201;-90
2023/04/30 01:59:50;;;;;;;7.13;5.65;;;11.00;95.10;;;;;;5053469;28;20198;-94
2023/04/30 02:02:17;;;;;;;6.95;5.72;;;11.00;94.90;;;;;;5053663;28;20205;-91
2023/04/30 02:04:44;;;;;;;6.63;6.03;;;11.10;94.80;;;;;;5051151;28;20213;-90
2023/04/30 02:07:12;;;;;;;6.78;5.93;;;11.10;95.10;;;;;;5051413;28;20222;-92
2023/04/30 02:09:39;;;;;;;6.78;5.57;;;11.10;95.10;;;;;;5051615;28;20194;-91
2023/04/30 02:12:06;;;;;;;6.85;6.15;;;11.10;95.10;;;;;;5056454;28;20211;-89
2023/04/30 02:14:33;;;;;;;7.03;6.32;;;11.10;95.40;;;;;;5053052;28;20202;-90
2023/04/30 02:17:01;;;;;;;7.68;6.03;;;11.10;95.00;;;;;;5048846;28;20225;-90
2023/04/30 02:19:28;;;;;;;8.70;6.20;;;11.10;95.10;;;;;;5046335;28;20237;-92
2023/04/30 02:21:55;;;;;;;9.52;5.88;;;11.10;95.10;;;;;;5036069;28;20201;-92
2023/04/30 02:24:22;;;;;;;6.40;5.80;;;11.10;95.10;;;;;;5051651;28;20261;-93
2023/04/30 02:26:50;;;;;;;7.38;5.90;;;11.10;95.30;;;;;;5052807;28;20655;-94
2023/04/30 02:29:17;;;;;;;6.30;5.70;;;11.10;95.20;;;;;;5046121;28;20209;-93
2023/04/30 02:31:44;;;;;;;8.07;5.80;;;11.30;94.50;;;;;;5051738;28;20202;-93
2023/04/30 02:34:12;;;;;;;7.15;6.20;;;11.30;94.20;;;;;;5051928;28;20203;-89
2023/04/30 02:36:39;;;;;;;8.07;6.22;;;11.20;94.50;;;;;;5050179;28;20222;-93
2023/04/30 02:39:07;;;;;;;7.60;5.97;;;11.20;94.50;;;;;;5046690;28;20231;-92
2023/04/30 02:41:35;;;;;;;7.30;6.25;;;11.10;94.60;;;;;;5054802;28;20214;-93
2023/04/30 02:44:02;;;;;;;7.65;6.40;;;11.00;94.80;;;;;;5053495;28;20246;-93
2023/04/30 02:46:29;;;;;;;6.40;5.78;;;11.10;94.80;;;;;;5052182;28;20186;-90
2023/04/30 02:48:56;;;;;;;7.28;6.00;;;11.00;94.70;;;;;;5056826;28;20218;-90
2023/04/30 02:51:24;;;;;;;8.00;5.90;;;11.00;94.60;;;;;;5052649;28;20330;-92
2023/04/30 02:53:51;;;;;;;7.28;6.13;;;10.90;94.80;;;;;;5051111;28;20189;-89
2023/04/30 02:56:18;;;;;;;7.82;6.40;;;10.90;95.00;;;;;;5047399;28;20209;-90
2023/04/30 02:58:45;;;;;;;6.45;5.85;;;10.80;95.40;;;;;;5055309;28;20253;-91
2023/04/30 03:01:12;;;;;;;7.78;5.95;;;10.70;95.70;;;;;;5044393;28;20195;-92
2023/04/30 03:03:39;;;;;;;8.52;6.95;;;10.80;95.40;;;;;;5053494;28;20258;-89
2023/04/30 03:06:06;;;;;;;7.32;6.50;;;10.80;95.50;;;;;;5056381;28;20182;-92
2023/04/30 03:08:34;;;;;;;8.38;6.20;;;10.80;95.40;;;;;;5055853;28;20202;-91
2023/04/30 03:11:01;;;;;;;8.32;6.80;;;10.80;95.10;;;;;;5052644;28;20183;-89
2023/04/30 03:13:29;;;;;;;8.80;6.93;;;10.80;95.20;;;;;;5047628;28;20194;-89
2023/04/30 03:15:59;;;;;;;7.47;6.22;;;10.70;95.50;;;;;;5051860;28;20206;-90
2023/04/30 03:18:26;;;;;;;7.95;6.50;;;10.70;95.90;;;;;;5053956;28;20221;-91
2023/04/30 03:20:53;;;;;;;8.55;6.57;;;10.80;95.90;;;;;;5046890;28;20203;-90
2023/04/30 03:23:20;;;;;;;7.97;6.38;;;10.80;95.30;;;;;;5054120;28;20294;-91
2023/04/30 03:25:49;;;;;;;8.45;6.50;;;10.80;95.10;;;;;;5051867;28;20190;-90
2023/04/30 03:28:16;;;;;;;8.38;6.57;;;10.80;94.80;;;;;;5046206;28;20211;-91
2023/04/30 03:30:43;;;;;;;7.45;6.50;;;10.70;95.00;;;;;;5054075;28;20206;-93
2023/04/30 03:33:10;;;;;;;7.15;6.45;;;10.70;95.10;;;;;;5053809;28;20194;-90
2023/04/30 03:35:37;;;;;;;9.15;7.07;;;10.60;95.20;;;;;;5054602;28;20255;-89
2023/04/30 03:38:04;;;;;;;7.68;6.47;;;10.60;95.20;;;;;;5056069;28;20224;-90
2023/04/30 03:40:31;;;;;;;7.55;6.75;;;10.60;95.20;;;;;;5047018;28;20226;-91
2023/04/30 03:42:59;;;;;;;7.45;6.53;;;10.60;95.10;;;;;;5046148;28;20186;-90
2023/04/30 03:45:26;;;;;;;7.95;6.82;;;10.60;94.90;;;;;;5049775;28;20209;-90
2023/04/30 03:47:53;;;;;;;9.00;6.85;;;10.50;95.20;;;;;;5051665;28;20250;-89
2023/04/30 03:50:20;;;;;;;9.52;7.35;;;10.40;95.80;;;;;;5157808;22;20247;-91
2023/04/30 03:52:47;;;;;;;7.57;6.70;;;10.40;95.70;;;;;;5074029;28;20182;-92
2023/04/30 03:55:14;;;;;;;8.32;7.45;;;10.30;95.80;;;;;;5068347;28;20624;-91
2023/04/30 03:57:41;;;;;;;8.25;7.18;;;10.20;95.80;;;;;;5071642;28;20186;-91
2023/04/30 04:00:12;;;;;;;8.15;7.07;;;10.20;96.20;;;;;;5070829;28;20188;-91
2023/04/30 04:02:39;;;;;;;8.23;7.25;;;10.30;96.00;;;;;;5066631;28;20209;-90
2023/04/30 04:05:06;;;;;;;8.50;6.47;;;10.20;96.00;;;;;;5063571;28;20200;-91
2023/04/30 04:07:33;;;;;;;7.97;6.80;;;10.20;96.20;;;;;;5071348;28;20228;-93
2023/04/30 04:10:00;;;;;;;8.18;7.38;;;10.20;96.10;;;;;;5072442;28;20182;-89
2023/04/30 04:12:27;;;;;;;9.80;7.63;;;10.20;96.30;;;;;;5072042;28;20213;-92
2023/04/30 04:14:54;;;;;;;8.60;7.35;;;10.20;96.30;;;;;;5062153;28;20208;-90
2023/04/30 04:17:22;;;;;;;9.48;7.72;;;10.20;96.30;;;;;;5064302;28;20242;-91
2023/04/30 04:19:49;;;;;;;10.25;7.65;;;10.20;96.30;;;;;;5062546;28;20226;-89
2023/04/30 04:22:16;;;;;;;10.05;8.02;;;10.20;96.50;;;;;;5064468;28;20268;-91
2023/04/30 04:24:43;;;;;;;9.75;7.30;;;10.20;96.70;;;;;;5453093;22;20227;-91
2023/04/30 04:27:10;;;;;;;8.10;7.25;;;10.30;96.40;;;;;;5079984;28;20210;-90
2023/04/30 04:29:37;;;;;;;9.07;7.10;;;10.40;95.80;;;;;;5084185;28;20204;-89
2023/04/30 04:32:04;;;;;;;7.72;6.70;;;10.40;95.80;;;;;;5081868;28;20225;-90
2023/04/30 04:34:37;;;;;;;9.20;7.60;;;10.50;95.80;;;;;;5077360;28;20186;-91
2023/04/30 04:37:04;;;;;;;8.88;7.10;;;10.50;95.80;;;;;;5080567;28;20216;-90
2023/04/30 04:39:31;;;;;;;8.80;7.18;;;10.50;95.80;;;;;;5077548;28;20252;-90
2023/04/30 04:41:58;;;;;;;9.43;6.90;;;10.50;95.80;;;;;;5080879;28;20439;-92
2023/04/30 04:44:26;;;;;;;8.02;7.20;;;10.50;95.80;;;;;;5079464;28;20182;-93
2023/04/30 04:46:53;;;;;;;9.80;7.43;;;10.60;95.90;;;;;;5080636;28;20181;-91
2023/04/30 04:49:20;;;;;;;10.40;7.55;;;10.60;95.90;;;;;;5077133;28;20197;-92
2023/04/30 04:51:48;;;;;;;9.77;7.40;;;10.60;95.60;;;;;;5081677;28;20221;-93
2023/04/30 04:54:15;;;;;;;9.25;7.60;;;10.60;95.60;;;;;;5073138;28;20214;-89
2023/04/30 04:56:42;;;;;;;8.32;7.00;;;10.60;95.90;;;;;;5080518;28;20200;-93
2023/04/30 04:59:09;;;;;;;9.65;7.28;;;10.60;95.50;;;;;;5076814;28;20223;-89
2023/04/30 05:01:36;;;;;;;7.72;6.97;;;10.60;95.30;;;;;;5077969;28;20660;-90
2023/04/30 05:04:03;;;;;;;7.85;6.68;;;10.60;95.50;;;;;;5075627;28;20217;-91
2023/04/30 05:06:30;;;;;;;8.18;7.18;;;10.60;95.40;;;;;;5078745;28;20225;-89
2023/04/30 05:08:59;;;;;;;8.43;7.63;;;10.70;95.00;;;;;;5076453;28;20221;-91
2023/04/30 05:11:26;;;;;;;10.73;7.30;;;10.70;95.00;;;;;;5077403;28;20205;-92
2023/04/30 05:13:53;;;;;;;8.30;7.20;;;10.70;95.60;;;;;;5079055;28;20194;-89
2023/04/30 05:16:21;;;;;;;9.65;8.05;;;10.70;95.90;;;;;;5082983;28;20192;-91
2023/04/30 05:18:48;;;;;;;8.02;7.15;;;10.70;95.90;;;;;;5067065;28;20309;-90
2023/04/30 05:21:15;;;;;;;8.10;7.10;;;10.70;95.90;;;;;;5051822;28;20220;-89
2023/04/30 05:23:42;;;;;;;7.88;6.70;;;10.80;95.60;;;;;;5060092;28;20190;-92
2023/04/30 05:26:11;;;;;;;9.52;7.13;;;11.00;95.00;;;;;;5073605;28;20251;-90
2023/04/30 05:28:38;;;;;;;9.73;7.55;;;11.20;94.60;;;;;;5075859;28;20253;-91
2023/04/30 05:31:06;;;;;;;9.82;7.28;;;11.20;94.10;;;;;;5070811;28;20198;-90
2023/04/30 05:33:33;;;;;;;8.80;7.13;;;11.20;93.80;;;;;;5066914;28;20190;-88
2023/04/30 05:36:00;;;;;;;8.68;6.95;;;11.20;93.80;;;;;;5069989;28;20201;-91
2023/04/30 05:38:27;;;;;;;10.07;7.38;;;11.20;93.70;;;;;;5071023;28;20236;-93
2023/04/30 05:40:55;;;;;;;9.40;7.22;;;11.20;93.30;;;;;;5071261;28;20284;-94
2023/04/30 05:43:23;;;;;;;8.68;7.78;;;11.20;93.30;;;;;;5070342;28;20342;-92
2023/04/30 05:45:50;;;;;;;8.40;7.45;;;11.20;93.10;;;;;;5071041;28;20242;-89
2023/04/30 05:48:18;;;;;;;8.10;7.28;;;11.10;93.00;;;;;;5074553;28;20181;-89
2023/04/30 05:50:45;;;;;;;7.90;7.10;;;11.10;93.30;;;;;;5065806;28;20194;-94
2023/04/30 05:53:14;;;;;;;8.48;7.57;;;11.10;93.10;;;;;;5065424;28;20197;-89
2023/04/30 05:55:41;;;;;;;8.88;7.20;;;11.20;93.30;;;;;;5070161;28;20194;-93
2023/04/30 05:58:07;;;;;;;7.63;6.80;;;11.20;93.00;;;;;;5070522;28;20178;-91
2023/04/30 06:00:36;;;;;;;8.18;7.32;;;11.30;93.20;;;;;;5066532;28;20298;-90
2023/04/30 06:03:03;;;;;;;9.05;7.30;;;11.30;93.30;;;;;;5066487;28;20267;-89
2023/04/30 06:05:30;;;;;;;8.38;7.13;;;11.40;93.00;;;;;;5069318;28;20277;-89
2023/04/30 06:07:57;;;;;;;8.07;6.90;;;11.40;92.50;;;;;;5068584;28;20186;-95
2023/04/30 06:10:24;;;;;;;7.25;6.55;;;11.50;92.50;;;;;;5068048;28;20190;-88
2023/04/30 06:12:51;;;;;;;8.15;7.15;;;11.60;91.60;;;;;;5066533;28;20757;-91
2023/04/30 06:15:18;;;;;;;7.38;6.68;;;11.80;90.70;;;;;;5054950;28;20206;-91
2023/04/30 06:17:47;;;;;;;7.68;6.75;;;11.80;91.10;;;;;;5069076;28;20286;-92
2023/04/30 06:20:14;;;;;;;7.18;6.45;;;11.90;90.70;;;;;;5065762;28;20244;-91
2023/04/30 06:22:41;;;;;;;9.25;7.05;;;12.00;90.70;;;;;;5064586;28;20253;-95
2023/04/30 06:25:09;;;;;;;7.72;6.88;;;12.10;90.80;;;;;;5065832;28;20221;-95
2023/04/30 06:27:37;;;;;;;7.53;6.70;;;12.10;90.80;;;;;;5062199;28;20205;-90
2023/04/30 06:30:06;;;;;;;7.97;6.78;;;12.30;90.80;;;;;;5063817;28;20205;-89
2023/04/30 06:32:33;;;;;;;7.18;6.30;;;12.60;88.40;;;;;;5059980;28;20205;-93
2023/04/30 06:35:04;;;;;;;6.50;5.90;;;12.70;87.90;;;;;;5061036;28;20202;-94
2023/04/30 06:37:36;;;;;;;6.68;5.60;;;12.80;85.40;;;;;;5059408;28;20202;-92
2023/04/30 06:40:03;;;;;;;5.93;5.25;;;12.90;83.30;;;;;;5060043;28;20264;-93
2023/04/30 06:42:33;;;;;;;6.18;5.57;;;12.80;79.60;;;;;;5061530;28;20205;-95
2023/04/30 06:45:01;;;;;;;6.90;6.20;;;13.00;80.60;;;;;;5061871;28;20210;-93
2023/04/30 06:47:33;;;;;;;6.38;5.60;;;13.10;78.80;;;;;;5057330;28;20579;-94
2023/04/30 06:50:06;;;;;;;8.05;5.60;;;13.40;76.20;;;;;;5041226;28;20249;-93
2023/04/30 06:52:48;;;;;;;7.78;6.97;;;13.40;76.20;;;;;;5058410;28;20195;-93
2023/04/30 06:55:15;;;;;;;6.25;5.45;;;13.60;76.30;;;;;;5048367;28;20229;-96
2023/04/30 06:57:45;;;;;;;5.85;5.25;;;14.00;73.20;;;;;;5054208;28;20655;-96
2023/04/30 07:00:14;;;;;;;6.18;5.68;;;14.20;65.80;;;;;;5055218;28;21495;-96
2023/04/30 07:02:41;;;;;;;7.05;5.63;;;14.20;65.20;;;;;;5047643;28;20205;-96
2023/04/30 07:05:11;;;;;;;6.43;5.43;;;14.20;64.40;;;;;;5048854;28;20241;-95
2023/04/30 07:07:38;;;;;;;5.78;5.28;;;13.90;68.60;;;;;;5050664;28;20217;-95
2023/04/30 07:10:06;;;;;;;5.60;5.10;;;14.10;65.70;;;;;;5046355;28;20546;-94
2023/04/30 07:12:34;;;;;;;5.85;5.35;;;14.30;63.60;;;;;;5051342;28;20234;-96
2023/04/30 07:15:02;;;;;;;6.22;5.60;;;14.20;61.50;;;;;;5058197;28;20229;-96
2023/04/30 07:17:30;;;;;;;6.30;5.70;;;14.20;65.40;;;;;;5048931;28;20253;-94
2023/04/30 07:19:56;;;;;;;6.80;5.82;;;14.10;63.90;;;;;;5063063;28;20227;-90
2023/04/30 07:22:25;;;;;;;6.13;5.55;;;13.90;65.50;;;;;;5065261;28;20285;-93
2023/04/30 07:24:52;;;;;;;5.82;5.22;;;14.00;64.80;;;;;;5066525;28;20273;-90
2023/04/30 07:27:22;;;;;;;6.57;5.32;;;14.20;63.80;;;;;;5060971;28;20198;-93
2023/04/30 07:29:49;;;;;;;6.50;5.60;;;14.40;63.30;;;;;;5063343;28;20198;-90
2023/04/30 07:32:16;;;;;;;7.05;5.50;;;14.40;62.80;;;;;;5064328;28;20254;-91
2023/04/30 07:34:43;;;;;;;5.70;5.15;;;14.50;65.20;;;;;;5065303;28;20320;-93
2023/04/30 07:37:10;;;;;;;7.53;5.13;;;14.80;58.60;;;;;;5066861;28;20206;-90
2023/04/30 07:39:39;;;;;;;5.68;5.18;;;14.90;56.10;;;;;;5057097;28;20244;-95
2023/04/30 07:42:07;;;;;;;6.00;5.45;;;14.80;57.20;;;;;;5039124;28;20199;-96
2023/04/30 07:44:34;;;;;;;6.00;5.40;;;14.80;59.80;;;;;;5057658;28;20383;-96
2023/04/30 07:47:01;;;;;;;6.90;5.80;;;14.80;57.50;;;;;;5059803;28;20209;-94
2023/04/30 07:49:28;;;;;;;6.78;5.47;;;14.80;58.60;;;;;;5058351;28;20205;-92
2023/04/30 07:51:56;;;;;;;6.10;5.50;;;14.90;61.20;;;;;;5053647;28;20265;-94
2023/04/30 07:54:24;;;;;;;6.55;5.57;;;15.10;58.80;;;;;;5053478;28;20209;-94
2023/04/30 07:56:53;;;;;;;5.50;5.00;;;15.40;55.30;;;;;;5052575;28;20197;-94
2023/04/30 07:59:20;;;;;;;9.05;5.65;;;15.40;53.70;;;;;;5045290;28;20717;-93
2023/04/30 08:01:47;;;;;;;5.95;5.45;;;15.30;51.60;;;;;;5022268;28;20232;-95
2023/04/30 08:04:14;;;;;;;9.23;5.57;;;15.30;51.70;;;;;;5056165;28;20212;-95
2023/04/30 08:06:41;;;;;;;5.47;4.90;;;15.50;51.80;;;;;;5045736;28;20204;-95
2023/04/30 08:09:08;;;;;;;6.57;5.68;;;15.50;50.90;;;;;;5051238;28;20243;-95
2023/04/30 08:11:35;;;;;;;5.53;4.97;;;15.50;49.50;;;;;;5043545;28;20202;-96
2023/04/30 08:14:04;;;;;;;5.78;5.18;;;15.60;51.90;;;;;;5047541;28;20198;-95
2023/04/30 08:16:31;;;;;;;5.68;4.93;;;15.80;48.00;;;;;;5044743;28;20205;-95
2023/04/30 08:18:59;;;;;;;7.20;4.90;;;15.50;51.80;;;;;;5046081;28;20229;-95
2023/04/30 08:21:26;;;;;;;5.85;5.25;;;15.90;52.20;;;;;;5045951;28;20202;-92
2023/04/30 08:23:54;;;;;;;6.70;4.85;;;16.50;50.90;;;;;;5052289;28;20205;-93
2023/04/30 08:26:22;;;;;;;5.25;4.75;;;16.90;42.30;;;;;;5040657;28;20289;-93
2023/04/30 08:28:49;;;;;;;5.63;4.80;;;17.00;41.80;;;;;;5042295;28;20297;-93
2023/04/30 08:31:17;;;;;;;5.93;5.18;;;16.60;40.10;;;;;;5046721;28;20664;-93
2023/04/30 08:33:44;;;;;;;5.38;4.88;;;16.80;40.60;;;;;;5039254;28;20195;-88
2023/04/30 08:36:11;;;;;;;4.88;4.47;;;16.70;42.10;;;;;;5045434;28;20205;-89
2023/04/30 08:38:38;;;;;;;5.10;4.60;;;16.80;42.10;;;;;;5044537;28;20201;-90
2023/04/30 08:41:11;;;;;;;5.60;4.90;;;17.30;37.60;;;;;;5042929;28;20216;-92
2023/04/30 08:43:38;;;;;;;5.30;4.80;;;17.40;36.20;;;;;;5044365;28;20204;-92
2023/04/30 08:46:06;;;;;;;5.32;4.60;;;17.50;36.00;;;;;;5059092;28;20232;-92
2023/04/30 08:48:35;;;;;;;15.45;10.18;;;17.30;35.50;;;;;;5049785;28;20201;-94
2023/04/30 08:51:02;;;;;;;5.15;4.03;;;17.30;36.20;;;;;;5046826;28;20201;-90
2023/04/30 08:53:30;;;;;;;4.90;4.40;;;17.50;33.40;;;;;;5047876;28;20205;-89
2023/04/30 08:55:58;;;;;;;5.18;4.40;;;17.50;34.00;;;;;;5049342;28;20256;-93
2023/04/30 08:58:25;;;;;;;4.50;4.10;;;17.70;31.60;;;;;;5065028;28;20245;-89
2023/04/30 09:00:52;;;;;;;14.73;13.15;;;17.60;30.80;;;;;;5071314;28;20212;-88
2023/04/30 09:03:23;;;;;;;4.50;4.10;;;17.60;31.60;;;;;;5070910;28;20254;-91
2023/04/30 09:05:52;;;;;;;4.45;4.05;;;17.50;31.50;;;;;;5056755;28;20201;-89
2023/04/30 09:08:20;;;;;;;4.10;3.78;;;17.20;31.60;;;;;;5051971;28;20263;-90
2023/04/30 09:10:47;;;;;;;4.57;4.18;;;16.80;33.80;;;;;;5045998;28;20203;-90
2023/04/30 09:13:14;;;;;;;4.55;4.15;;;16.50;36.60;;;;;;5052511;28;20323;-92
2023/04/30 09:15:42;;;;;;;4.05;3.75;;;16.50;36.40;;;;;;5046470;28;20244;-95
2023/04/30 09:18:11;;;;;;;4.35;3.97;;;16.50;35.40;;;;;;5055191;28;20229;-94
2023/04/30 09:20:56;;;;;;;4.35;4.03;;;16.50;36.40;;;;;;5047379;28;20297;-93
2023/04/30 09:23:24;;;;;;;4.80;3.70;;;16.60;35.70;;;;;;5045304;28;20323;-90
2023/04/30 09:25:51;;;;;;;5.82;5.22;;;16.60;35.60;;;;;;5049312;28;20218;-94
2023/04/30 09:28:22;;;;;;;4.50;4.10;;;16.40;38.90;;;;;;5054321;28;20194;-94
2023/04/30 09:30:50;;;;;;;4.45;4.05;;;16.60;35.80;;;;;;5063592;28;20183;-94
2023/04/30 09:33:17;;;;;;;9.93;7.95;;;16.70;35.90;;;;;;5047437;28;20202;-92
2023/04/30 09:35:45;;;;;;;4.53;4.13;;;16.30;36.90;;;;;;5049197;28;20877;-93
2023/04/30 09:38:27;;;;;;;5.63;4.30;;;15.80;37.60;;;;;;5052920;28;20260;-92
2023/04/30 09:40:54;;;;;;;4.32;3.92;;;15.50;39.80;;;;;;5050967;28;20236;-91
2023/04/30 09:43:21;;;;;;;4.53;4.13;;;15.30;41.90;;;;;;5051912;28;20573;-94
2023/04/30 09:45:50;;;;;;;4.90;4.20;;;15.10;45.40;;;;;;5066972;28;20201;-91
2023/04/30 09:48:18;;;;;;;4.15;3.83;;;15.10;46.80;;;;;;5053349;28;20191;-92
2023/04/30 09:50:46;;;;;;;4.47;4.07;;;15.00;45.10;;;;;;5063648;28;20194;-91
2023/04/30 09:53:14;;;;;;;4.75;4.25;;;14.90;46.00;;;;;;5055561;28;20226;-91
2023/04/30 09:55:45;;;;;;;4.70;4.20;;;14.80;46.50;;;;;;5048372;28;20214;-91
2023/04/30 09:58:13;;;;;;;5.55;4.15;;;14.90;47.60;;;;;;5051564;28;20214;-89
2023/04/30 10:00:40;;;;;;;4.47;4.07;;;14.90;47.40;;;;;;5051672;28;20252;-92
2023/04/30 10:03:08;;;;;;;5.32;4.13;;;15.00;48.70;;;;;;5052105;28;20207;-94
2023/04/30 10:05:43;;;;;;;4.70;4.30;;;15.20;45.20;;;;;;5050665;28;20217;-90
2023/04/30 10:08:19;;;;;;;4.70;4.30;;;15.30;44.60;;;;;;5044444;28;20674;-91
2023/04/30 10:10:50;;;;;;;4.50;4.10;;;15.30;45.00;;;;;;5039624;28;20203;-94
2023/04/30 10:13:20;;;;;;;5.18;4.45;;;15.40;44.70;;;;;;5051289;28;20186;-92
2023/04/30 10:15:51;;;;;;;5.15;4.57;;;15.70;44.80;;;;;;5055290;28;20214;-90
2023/04/30 10:18:23;;;;;;;5.18;4.30;;;15.80;43.80;;;;;;5043544;28;20226;-89
2023/04/30 10:20:53;;;;;;;5.47;4.97;;;15.90;41.90;;;;;;5043138;28;20209;-90
2023/04/30 10:23:22;;;;;;;5.47;4.97;;;16.10;40.90;;;;;;5046690;28;20198;-90
2023/04/30 10:25:51;;;;;;;5.47;4.82;;;16.30;39.30;;;;;;5065637;28;20201;-92
2023/04/30 10:28:19;;;;;;;5.05;4.57;;;16.50;36.60;;;;;;5053169;28;20252;-96
2023/04/30 10:30:45;;;;;;;5.00;4.18;;;16.50;36.00;;;;;;5044975;28;20297;-93
2023/04/30 10:33:23;;;;;;;4.68;4.28;;;16.30;34.80;;;;;;5047974;28;20245;-95
2023/04/30 10:35:54;;;;;;;3.55;3.25;;;16.40;34.30;;;;;;5044268;28;20592;-92
2023/04/30 10:38:24;;;;;;;4.20;3.83;;;16.60;32.60;;;;;;5047518;28;20273;-91
2023/04/30 10:40:56;;;;;;;4.35;4.05;;;16.80;32.30;;;;;;5052451;28;20219;-92
2023/04/30 10:43:24;;;;;;;4.05;3.67;;;17.00;31.30;;;;;;5059371;28;20225;-93
2023/04/30 10:45:51;;;;;;;4.72;4.32;;;17.10;32.50;;;;;;5056198;28;20203;-93
2023/04/30 10:51:02;;;;;;;3.90;3.60;;;17.40;30.10;;;;;;5049627;28;20228;-90
2023/04/30 10:53:32;;;;;;;4.50;4.10;;;17.40;29.90;;;;;;5045379;28;20202;-93
2023/04/30 10:56:05;;;;;;;4.78;3.95;;;17.40;29.90;;;;;;5044812;28;20220;-94
2023/04/30 10:58:33;;;;;;;3.78;3.45;;;17.30;29.80;;;;;;5050314;28;20660;-91
2023/04/30 11:01:03;;;;;;;5.55;5.15;;;17.20;29.70;;;;;;5198030;22;21450;-91
2023/04/30 11:03:31;;;;;;;5.40;3.88;;;17.40;29.90;;;;;;5046784;28;20203;-92
2023/04/30 11:06:02;;;;;;;4.28;3.88;;;17.60;30.00;;;;;;5049920;28;20186;-93
2023/04/30 11:08:33;;;;;;;4.15;3.78;;;17.70;30.10;;;;;;5040083;28;20218;-92
2023/04/30 11:11:04;;;;;;;3.70;3.40;;;18.20;30.60;;;;;;5051502;28;20262;-91
2023/04/30 11:13:40;;;;;;;4.05;3.75;;;18.60;27.70;;;;;;5040892;28;21367;-91
2023/04/30 11:16:08;;;;;;;5.53;4.10;;;18.60;25.90;;;;;;5044239;28;20211;-90
2023/04/30 11:18:41;;;;;;;4.53;4.13;;;18.30;27.10;;;;;;5051615;28;20202;-95
2023/04/30 11:21:09;;;;;;;3.42;3.13;;;18.00;27.50;;;;;;5032734;28;20226;-93
2023/04/30 11:23:36;;;;;;;3.70;3.40;;;18.50;28.60;;;;;;5033831;28;20209;-93
2023/04/30 11:26:04;;;;;;;5.13;3.75;;;18.20;26.70;;;;;;5036978;28;20203;-88
2023/04/30 11:28:34;;;;;;;5.18;3.80;;;17.40;29.80;;;;;;5040054;28;20214;-95
2023/04/30 11:31:02;;;;;;;4.72;4.03;;;17.20;29.70;;;;;;5168148;22;20218;-96
2023/04/30 11:33:31;;;;;;;3.67;3.38;;;17.50;30.00;;;;;;5054394;28;20213;-92
2023/04/30 11:36:00;;;;;;;5.95;4.13;;;17.50;29.10;;;;;;5058595;28;20210;-88
2023/04/30 11:38:32;;;;;;;4.40;3.70;;;17.90;28.10;;;;;;5052944;28;20211;-91
2023/04/30 11:40:59;;;;;;;3.75;3.45;;;17.90;27.00;;;;;;5058844;28;20628;-94
2023/04/30 11:46:12;;;;;;;4.68;3.83;;;17.70;27.40;;;;;;5063634;28;20190;-94
2023/04/30 11:48:41;;;;;;;3.78;3.38;;;17.40;27.70;;;;;;5063764;28;20190;-94
2023/04/30 11:53:43;;;;;;;4.93;3.38;;;17.30;29.40;;;;;;5296887;22;20226;-94
2023/04/30 11:56:10;;;;;;;4.45;3.30;;;17.40;28.10;;;;;;5042181;28;20211;-92
2023/04/30 11:58:39;;;;;;;5.60;3.38;;;17.40;27.30;;;;;;5047022;28;20196;-95
2023/04/30 12:01:08;;;;;;;3.35;3.05;;;17.20;26.70;;;;;;5043348;28;20242;-90
2023/04/30 12:03:41;;;;;;;3.78;3.30;;;16.90;27.00;;;;;;5047648;28;20225;-92
2023/04/30 12:06:10;;;;;;;3.15;2.90;;;16.90;29.50;;;;;;5042264;28;20195;-93
2023/04/30 12:08:37;;;;;;;5.07;3.17;;;16.90;29.40;;;;;;5132912;22;20239;-91
2023/04/30 12:11:06;;;;;;;4.72;2.80;;;17.00;28.30;;;;;;5027980;28;20211;-91
2023/04/30 12:13:33;;;;;;;3.42;2.97;;;17.00;26.50;;;;;;5029205;28;20214;-95
2023/04/30 12:18:37;;;;;;;4.05;3.05;;;17.10;26.40;;;;;;5065145;22;20202;-89
2023/04/30 12:21:05;;;;;;;4.35;3.00;;;17.10;26.90;;;;;;5049832;28;20282;-91
2023/04/30 12:23:32;;;;;;;4.15;3.00;;;17.20;26.30;;;;;;5035616;28;20207;-93
2023/04/30 12:26:00;;;;;;;2.97;2.78;;;17.30;26.40;;;;;;5041842;28;20183;-93
2023/04/30 12:28:27;;;;;;;3.13;2.83;;;17.40;25.20;;;;;;5051615;28;20197;-91
2023/04/30 12:30:54;;;;;;;3.10;2.80;;;17.30;25.20;;;;;;5047160;28;20194;-92
2023/04/30 12:33:21;;;;;;;3.40;2.83;;;17.10;26.30;;;;;;5033546;28;20294;-93
2023/04/30 12:35:53;;;;;;;3.08;2.75;;;17.20;25.60;;;;;;5023731;28;20206;-94
2023/04/30 12:38:22;;;;;;;2.92;2.70;;;17.20;25.50;;;;;;5019391;28;20202;-92
2023/04/30 12:40:49;;;;;;;3.08;2.63;;;17.00;26.40;;;;;;5018846;28;20632;-94
2023/04/30 12:43:17;;;;;;;3.08;2.70;;;17.00;26.40;;;;;;5029479;28;20651;-94
2023/04/30 12:45:51;;;;;;;3.03;2.72;;;17.10;27.10;;;;;;5023468;28;20199;-91
2023/04/30 12:48:19;;;;;;;7.32;3.42;;;17.20;26.00;;;;;;5024682;28;20573;-93
2023/04/30 12:50:53;;;;;;;3.55;3.25;;;17.60;25.40;;;;;;5019067;28;20206;-93
2023/04/30 12:53:20;;;;;;;3.42;3.13;;;17.80;25.00;;;;;;5023692;28;20198;-93
2023/04/30 12:56:09;;;;;;;5.30;2.97;;;18.20;23.80;;;;;;5030405;28;20198;-93
2023/04/30 12:58:36;;;;;;;5.32;3.20;;;18.30;23.80;;;;;;5022614;28;20195;-95
2023/04/30 13:01:04;;;;;;;2.95;2.75;;;18.30;23.50;;;;;;5023177;28;20230;-94
2023/04/30 13:03:31;;;;;;;2.72;2.53;;;18.20;23.50;;;;;;5025099;28;20214;-92